Time;durP1;ratioP1;P1;durP2;ratioP2;P2;SDS_P1;SDS_P2;PMS_P1;PMS_P2;Temp;Humidity;BMP_temperature;BMP_pressure;BME280_temperature;BME280_humidity;BME280_pressure;Samples;Min_cycle;Max_cycle;Signal;HPM_P1;HPM_P2
2022/09/03 00:00:20;;;;;;;1.47;0.90;;;19.30;68.50;;;;;;6125998;23;20402;-78
2022/09/03 00:02:53;;;;;;;1.47;0.90;;;19.30;68.50;;;;;;6130847;23;20473;-78
2022/09/03 00:05:25;;;;;;;1.40;0.90;;;19.30;68.30;;;;;;6123989;23;20414;-79
2022/09/03 00:08:02;;;;;;;1.43;0.90;;;19.20;68.70;;;;;;6131743;23;20971;-78
2022/09/03 00:10:38;;;;;;;1.40;0.97;;;19.20;68.70;;;;;;6123003;23;20496;-78
2022/09/03 00:13:09;;;;;;;1.40;0.90;;;19.20;68.90;;;;;;6131080;23;20448;-77
2022/09/03 00:15:39;;;;;;;1.40;0.90;;;19.20;69.20;;;;;;6132753;23;20905;-78
2022/09/03 00:18:09;;;;;;;1.40;0.90;;;19.10;69.20;;;;;;6130457;23;20441;-78
2022/09/03 00:20:41;;;;;;;1.43;0.90;;;19.10;68.80;;;;;;6123573;23;20417;-78
2022/09/03 00:23:12;;;;;;;1.47;0.90;;;19.10;69.10;;;;;;6130016;23;20798;-78
2022/09/03 00:25:46;;;;;;;1.43;0.90;;;19.10;69.40;;;;;;6132627;23;20414;-78
2022/09/03 00:28:17;;;;;;;1.40;0.90;;;19.00;69.40;;;;;;6084098;23;20519;-78
2022/09/03 00:30:46;;;;;;;1.47;0.90;;;19.00;69.20;;;;;;6133149;23;20445;-79
2022/09/03 00:33:20;;;;;;;1.47;0.90;;;19.00;69.30;;;;;;6122872;23;20477;-80
2022/09/03 00:35:52;;;;;;;1.40;0.90;;;19.00;69.30;;;;;;6130804;23;20421;-79
2022/09/03 00:38:20;;;;;;;1.60;1.20;;;18.90;69.90;;;;;;6145178;23;20449;-78
2022/09/03 00:41:06;;;;;;;1.40;0.90;;;18.90;69.90;;;;;;6115581;23;20943;-78
2022/09/03 00:43:46;;;;;;;1.40;0.90;;;18.80;69.70;;;;;;6142097;23;20437;-79
2022/09/03 00:46:22;;;;;;;1.40;0.90;;;18.80;70.30;;;;;;6122439;23;21257;-79
2022/09/03 00:49:05;;;;;;;1.40;0.90;;;18.80;69.90;;;;;;6140022;23;20448;-78
2022/09/03 00:51:41;;;;;;;1.40;0.90;;;18.80;70.60;;;;;;6120873;23;20472;-79
2022/09/03 00:54:17;;;;;;;1.40;0.90;;;18.80;70.60;;;;;;6142549;23;20414;-78
2022/09/03 00:56:53;;;;;;;1.47;0.90;;;18.80;70.50;;;;;;6120041;23;20491;-78
2022/09/03 00:59:31;;;;;;;1.50;0.97;;;18.80;70.70;;;;;;6134820;23;20442;-79
2022/09/03 01:02:08;;;;;;;1.40;1.00;;;18.70;70.90;;;;;;6122716;23;20429;-77
2022/09/03 01:04:48;;;;;;;1.47;0.90;;;18.70;70.70;;;;;;6123366;23;20598;-77
2022/09/03 01:07:23;;;;;;;1.50;0.90;;;18.70;71.20;;;;;;6124585;23;20456;-78
2022/09/03 01:09:58;;;;;;;1.40;0.90;;;18.70;70.70;;;;;;6128730;23;20406;-78
2022/09/03 01:12:37;;;;;;;1.50;0.90;;;18.70;71.40;;;;;;6122742;23;20420;-78
2022/09/03 01:15:10;;;;;;;1.47;0.90;;;18.60;71.20;;;;;;6125122;23;20405;-79
2022/09/03 01:17:48;;;;;;;1.50;1.00;;;18.60;71.60;;;;;;6130471;23;20901;-78
2022/09/03 01:20:32;;;;;;;1.40;0.90;;;18.60;71.70;;;;;;6123832;23;20433;-78
2022/09/03 01:23:43;;;;;;;1.47;0.90;;;18.60;71.60;;;;;;6130575;23;20448;-78
2022/09/03 01:26:43;;;;;;;1.50;1.10;;;18.60;71.60;;;;;;6111464;23;20441;-78
2022/09/03 01:29:20;;;;;;;1.40;0.90;;;18.60;71.80;;;;;;6136396;23;20418;-79
2022/09/03 01:31:57;;;;;;;1.43;0.97;;;18.50;71.80;;;;;;6108095;23;21030;-78
2022/09/03 01:34:35;;;;;;;1.50;0.90;;;18.50;71.40;;;;;;6132494;23;20487;-78
2022/09/03 01:37:16;;;;;;;1.40;0.90;;;18.50;71.90;;;;;;6124162;23;20788;-77
2022/09/03 01:39:52;;;;;;;1.47;0.90;;;18.50;72.00;;;;;;6127478;23;20444;-79
2022/09/03 01:42:31;;;;;;;1.50;1.00;;;18.50;72.20;;;;;;6125192;23;20535;-77
2022/09/03 01:45:24;;;;;;;1.50;1.00;;;18.50;72.20;;;;;;6123831;23;20443;-77
2022/09/03 01:48:09;;;;;;;1.43;1.00;;;18.40;72.40;;;;;;6130688;23;21017;-79
2022/09/03 01:50:44;;;;;;;1.50;0.97;;;18.40;72.60;;;;;;6121956;23;20401;-78
2022/09/03 01:53:25;;;;;;;1.50;0.90;;;18.40;72.50;;;;;;6129550;23;20431;-78
2022/09/03 01:56:05;;;;;;;1.77;1.47;;;18.40;72.40;;;;;;6116592;23;20469;-77
2022/09/03 01:58:37;;;;;;;1.47;1.00;;;18.40;72.70;;;;;;6151135;23;20955;-78
2022/09/03 02:01:13;;;;;;;1.43;0.90;;;18.40;72.80;;;;;;6111023;23;20429;-77
2022/09/03 02:03:44;;;;;;;1.43;0.90;;;18.30;73.20;;;;;;6140219;23;20464;-77
2022/09/03 02:06:14;;;;;;;1.47;0.90;;;18.30;73.40;;;;;;6119788;23;20472;-78
2022/09/03 02:08:41;;;;;;;1.43;0.90;;;18.30;73.70;;;;;;6149107;23;20433;-78
2022/09/03 02:11:10;;;;;;;1.40;0.90;;;18.30;73.70;;;;;;6118501;23;20441;-79
2022/09/03 02:13:41;;;;;;;1.43;0.90;;;18.30;73.70;;;;;;6141082;23;20422;-76
2022/09/03 02:16:14;;;;;;;1.40;1.00;;;18.30;73.70;;;;;;6113747;23;20447;-77
2022/09/03 02:18:44;;;;;;;1.40;0.90;;;18.30;74.10;;;;;;6141539;23;20453;-76
2022/09/03 02:21:16;;;;;;;1.47;0.90;;;18.20;74.30;;;;;;6113045;23;21173;-78
2022/09/03 02:23:43;;;;;;;1.47;0.90;;;18.20;74.50;;;;;;6150498;23;20802;-77
2022/09/03 02:26:13;;;;;;;1.50;1.10;;;18.20;74.90;;;;;;6112388;23;20971;-78
2022/09/03 02:28:40;;;;;;;1.43;0.90;;;18.20;74.90;;;;;;6140898;23;20465;-78
2022/09/03 02:31:08;;;;;;;1.40;0.90;;;18.20;74.60;;;;;;6122477;23;20432;-78
2022/09/03 02:33:39;;;;;;;1.50;0.90;;;18.10;74.90;;;;;;6123305;23;20460;-77
2022/09/03 02:36:10;;;;;;;1.50;1.00;;;18.10;74.30;;;;;;6112490;23;20934;-78
2022/09/03 02:38:38;;;;;;;1.43;0.97;;;18.10;74.70;;;;;;6151754;23;20440;-78
2022/09/03 02:41:05;;;;;;;1.47;0.90;;;18.10;74.90;;;;;;6121768;23;20417;-77
2022/09/03 02:43:48;;;;;;;1.47;0.90;;;18.10;75.10;;;;;;6143970;23;20426;-77
2022/09/03 02:46:20;;;;;;;1.50;0.90;;;18.10;74.60;;;;;;6123141;23;20409;-78
2022/09/03 02:48:49;;;;;;;1.50;0.90;;;18.00;74.80;;;;;;6123754;23;20445;-77
2022/09/03 02:51:16;;;;;;;1.50;0.90;;;18.00;74.50;;;;;;6133535;23;20784;-78
2022/09/03 02:53:43;;;;;;;1.40;1.00;;;18.00;74.70;;;;;;6133028;23;20909;-79
2022/09/03 02:56:10;;;;;;;1.40;0.90;;;18.00;74.50;;;;;;6112348;23;20452;-77
2022/09/03 02:58:37;;;;;;;1.40;0.90;;;18.00;74.80;;;;;;6142077;23;20441;-78
2022/09/03 03:01:05;;;;;;;1.40;0.90;;;18.00;74.10;;;;;;6123374;23;20421;-77
2022/09/03 03:03:33;;;;;;;1.50;0.90;;;17.90;75.00;;;;;;6132860;23;20425;-78
2022/09/03 03:06:05;;;;;;;1.60;1.40;;;17.90;74.40;;;;;;6110377;23;20682;-78
2022/09/03 03:08:33;;;;;;;1.50;1.00;;;17.90;74.40;;;;;;6143904;23;20446;-78
2022/09/03 03:11:01;;;;;;;1.43;1.00;;;17.90;75.10;;;;;;6122900;23;20425;-78
2022/09/03 03:13:29;;;;;;;2.13;1.93;;;17.90;75.20;;;;;;6122467;23;20430;-78
2022/09/03 03:15:57;;;;;;;1.47;0.90;;;17.90;74.70;;;;;;6109970;23;20485;-78
2022/09/03 03:18:24;;;;;;;1.40;0.90;;;17.90;75.00;;;;;;6154637;23;20445;-77
2022/09/03 03:20:51;;;;;;;1.47;1.00;;;17.90;75.00;;;;;;6119045;23;20439;-77
2022/09/03 03:23:20;;;;;;;1.50;0.90;;;17.90;74.70;;;;;;6143886;23;20890;-77
2022/09/03 03:25:48;;;;;;;1.40;0.90;;;17.90;75.10;;;;;;6132798;23;20480;-78
2022/09/03 03:28:17;;;;;;;1.47;0.90;;;17.80;75.20;;;;;;6122495;23;20991;-77
2022/09/03 03:30:47;;;;;;;1.43;0.93;;;17.80;75.30;;;;;;6121212;23;20470;-77
2022/09/03 03:33:14;;;;;;;1.43;0.90;;;17.80;75.50;;;;;;6081644;23;20438;-77
2022/09/03 03:35:41;;;;;;;1.47;0.90;;;17.80;75.40;;;;;;6132696;23;20488;-78
2022/09/03 03:38:08;;;;;;;1.40;0.90;;;17.80;75.20;;;;;;6132320;23;20454;-77
2022/09/03 03:40:38;;;;;;;1.47;1.00;;;17.80;75.30;;;;;;6132330;23;20454;-77
2022/09/03 03:43:05;;;;;;;1.43;0.90;;;17.80;75.30;;;;;;6131913;23;20430;-77
2022/09/03 03:45:32;;;;;;;1.40;0.90;;;17.80;75.20;;;;;;6121553;23;20521;-77
2022/09/03 03:47:59;;;;;;;1.50;0.90;;;17.70;75.70;;;;;;6130658;23;20457;-78
2022/09/03 03:50:26;;;;;;;1.40;0.90;;;17.70;75.50;;;;;;6122864;23;20575;-77
2022/09/03 03:52:53;;;;;;;1.43;1.00;;;17.70;75.60;;;;;;6130200;23;20448;-77
2022/09/03 03:55:21;;;;;;;1.40;0.90;;;17.70;75.70;;;;;;6130952;23;20429;-77
2022/09/03 03:57:50;;;;;;;1.47;1.00;;;17.70;75.40;;;;;;6131029;23;20476;-77
2022/09/03 04:00:17;;;;;;;1.47;0.90;;;17.70;76.00;;;;;;6123693;23;20453;-76
2022/09/03 04:02:46;;;;;;;1.43;0.90;;;17.70;75.40;;;;;;6122113;23;20809;-77
2022/09/03 04:05:13;;;;;;;1.47;1.00;;;17.70;76.50;;;;;;6131498;23;20422;-76
2022/09/03 04:07:43;;;;;;;1.50;1.00;;;17.60;76.40;;;;;;6131316;23;20452;-77
2022/09/03 04:10:11;;;;;;;1.47;0.90;;;17.60;76.80;;;;;;6122183;23;20484;-77
2022/09/03 04:12:38;;;;;;;1.43;0.90;;;17.60;76.50;;;;;;6129071;23;20991;-77
2022/09/03 04:15:07;;;;;;;1.50;0.90;;;17.60;76.30;;;;;;6124814;23;20422;-79
2022/09/03 04:17:34;;;;;;;1.50;1.00;;;17.60;76.70;;;;;;6131126;23;20737;-78
2022/09/03 04:20:01;;;;;;;1.50;1.00;;;17.60;76.90;;;;;;6126102;23;20446;-77
2022/09/03 04:22:29;;;;;;;1.47;0.90;;;17.60;76.00;;;;;;6128212;23;20858;-77
2022/09/03 04:24:56;;;;;;;1.43;0.90;;;17.50;77.20;;;;;;6128693;23;20426;-77
2022/09/03 04:27:23;;;;;;;1.43;0.97;;;17.50;77.10;;;;;;6125856;23;20511;-76
2022/09/03 04:29:50;;;;;;;1.47;1.00;;;17.50;77.10;;;;;;6121808;23;20421;-76
2022/09/03 04:35:04;;;;;;;1.43;0.90;;;17.50;77.20;;;;;;6121173;23;20902;-76
2022/09/03 04:37:32;;;;;;;1.47;0.97;;;17.50;77.20;;;;;;6126716;23;20819;-77
2022/09/03 04:39:59;;;;;;;1.40;0.90;;;17.50;77.60;;;;;;6125662;23;20452;-76
2022/09/03 04:42:27;;;;;;;1.40;0.90;;;17.50;77.50;;;;;;6128260;23;20456;-76
2022/09/03 04:44:54;;;;;;;1.43;0.90;;;17.50;77.50;;;;;;6124758;23;20468;-76
2022/09/03 04:47:24;;;;;;;1.43;1.00;;;17.40;77.50;;;;;;6122852;23;20563;-76
2022/09/03 04:49:52;;;;;;;1.43;0.90;;;17.50;77.50;;;;;;6137053;23;20474;-77
2022/09/03 04:52:20;;;;;;;1.43;1.00;;;17.40;77.40;;;;;;6122889;23;20508;-76
2022/09/03 04:54:47;;;;;;;1.50;0.90;;;17.40;77.60;;;;;;6122269;23;20460;-76
2022/09/03 04:57:15;;;;;;;1.40;0.90;;;17.50;77.30;;;;;;6127152;23;20536;-77
2022/09/03 04:59:42;;;;;;;1.47;1.00;;;17.40;77.50;;;;;;6138616;23;20469;-76
2022/09/03 05:02:10;;;;;;;1.43;0.90;;;17.50;77.70;;;;;;6123087;23;20797;-76
2022/09/03 05:04:38;;;;;;;1.47;0.90;;;17.50;77.50;;;;;;6138393;23;20485;-77
2022/09/03 05:07:06;;;;;;;1.47;0.90;;;17.40;78.10;;;;;;6131489;23;20442;-76
2022/09/03 05:09:33;;;;;;;1.47;1.00;;;17.40;78.00;;;;;;6122916;23;20531;-76
2022/09/03 05:12:01;;;;;;;1.47;1.00;;;17.40;78.40;;;;;;6124302;23;20428;-76
2022/09/03 05:14:28;;;;;;;1.47;0.90;;;17.40;78.30;;;;;;6124475;23;20424;-77
2022/09/03 05:16:55;;;;;;;1.47;0.90;;;17.40;78.30;;;;;;6124291;23;20527;-76
2022/09/03 05:19:23;;;;;;;1.50;1.00;;;17.40;78.20;;;;;;6140809;23;20421;-76
2022/09/03 05:21:52;;;;;;;1.40;0.80;;;17.50;78.00;;;;;;6120577;23;20467;-76
2022/09/03 05:24:20;;;;;;;1.47;0.90;;;17.50;77.80;;;;;;6144451;23;20425;-77
2022/09/03 05:26:47;;;;;;;1.40;0.90;;;17.50;78.20;;;;;;6122057;23;20452;-77
2022/09/03 05:29:15;;;;;;;1.50;1.00;;;17.50;77.30;;;;;;6135200;23;20417;-76
2022/09/03 05:31:42;;;;;;;1.40;0.90;;;17.60;77.70;;;;;;6123580;23;20579;-76
2022/09/03 05:34:10;;;;;;;1.47;0.90;;;17.60;77.20;;;;;;6132077;23;20496;-76
2022/09/03 05:36:38;;;;;;;1.50;1.00;;;17.60;77.60;;;;;;6129285;23;20437;-75
2022/09/03 05:39:06;;;;;;;1.40;0.90;;;17.60;77.60;;;;;;6120583;23;20506;-76
2022/09/03 05:41:35;;;;;;;1.50;0.90;;;17.60;77.70;;;;;;6115052;23;20451;-77
2022/09/03 05:44:03;;;;;;;1.50;0.90;;;17.60;77.40;;;;;;6134825;23;20421;-77
2022/09/03 05:46:32;;;;;;;1.47;1.00;;;17.70;77.60;;;;;;6117439;23;20493;-76
2022/09/03 05:49:00;;;;;;;1.47;0.90;;;17.70;77.60;;;;;;6151560;23;20829;-76
2022/09/03 05:51:28;;;;;;;1.40;0.90;;;17.80;77.60;;;;;;6117517;23;20445;-76
2022/09/03 05:53:56;;;;;;;1.50;0.90;;;17.90;77.40;;;;;;6139279;23;20429;-76
2022/09/03 05:56:28;;;;;;;1.40;0.90;;;18.00;77.00;;;;;;6134345;23;20441;-76
2022/09/03 05:59:00;;;;;;;1.47;1.00;;;18.10;77.00;;;;;;6132309;23;20457;-77
2022/09/03 06:01:38;;;;;;;1.43;0.90;;;18.20;76.90;;;;;;6142233;23;20446;-77
2022/09/03 06:18:45;;;;;;;1.40;0.90;;;19.00;75.10;;;;;;5814184;24;20444;-77
2022/09/03 06:38:02;;;;;;;1.47;0.90;;;19.60;74.70;;;;;;5935090;24;20793;-77
2022/09/03 06:40:34;;;;;;;1.40;0.90;;;19.70;74.40;;;;;;6013134;23;20456;-78
2022/09/03 06:43:02;;;;;;;1.43;0.90;;;19.90;74.00;;;;;;6130909;23;20724;-79
2022/09/03 06:45:30;;;;;;;1.40;0.90;;;19.90;73.60;;;;;;6122272;23;20432;-75
2022/09/03 06:47:59;;;;;;;1.43;0.90;;;20.00;73.40;;;;;;6133185;23;20468;-75
2022/09/03 06:50:26;;;;;;;1.43;0.90;;;20.00;74.30;;;;;;6122313;23;20920;-77
2022/09/03 06:52:54;;;;;;;1.43;0.90;;;20.10;73.70;;;;;;6118231;23;20422;-77
2022/09/03 06:55:22;;;;;;;1.47;0.90;;;20.10;73.70;;;;;;6115228;23;20425;-77
2022/09/03 06:57:52;;;;;;;1.47;0.90;;;20.10;73.30;;;;;;6126165;23;20461;-78
2022/09/03 07:00:20;;;;;;;1.50;1.00;;;20.10;72.90;;;;;;6131673;23;20873;-77
2022/09/03 07:02:48;;;;;;;1.40;0.90;;;20.10;73.10;;;;;;6130847;23;20847;-76
2022/09/03 07:05:17;;;;;;;1.40;0.90;;;20.10;73.20;;;;;;6122949;23;20764;-76
2022/09/03 07:07:45;;;;;;;1.80;1.57;;;20.10;73.00;;;;;;6128091;23;20513;-77
2022/09/03 07:10:15;;;;;;;1.43;0.90;;;20.00;72.90;;;;;;6126307;23;20436;-77
2022/09/03 07:12:42;;;;;;;1.43;0.90;;;19.90;73.10;;;;;;6131591;23;20453;-77
2022/09/03 07:15:11;;;;;;;1.47;0.90;;;20.00;73.20;;;;;;6135003;23;20522;-76
2022/09/03 07:17:38;;;;;;;1.43;0.90;;;20.00;73.00;;;;;;6127193;23;20607;-77
2022/09/03 07:20:06;;;;;;;1.43;0.90;;;20.10;73.00;;;;;;6124705;23;20492;-76
2022/09/03 07:22:35;;;;;;;1.47;0.90;;;20.10;72.90;;;;;;6125351;23;20517;-76
2022/09/03 07:25:03;;;;;;;1.47;0.90;;;20.20;72.80;;;;;;6134761;23;20476;-77
2022/09/03 07:27:31;;;;;;;1.43;0.90;;;20.30;72.70;;;;;;6129175;23;20491;-77
2022/09/03 07:29:58;;;;;;;1.47;0.90;;;20.30;72.80;;;;;;6131723;23;20489;-77
2022/09/03 07:32:26;;;;;;;1.43;0.90;;;20.30;72.80;;;;;;6124958;23;21023;-77
2022/09/03 07:35:18;;;;;;;1.47;0.90;;;20.40;72.80;;;;;;6119515;23;20430;-76
2022/09/03 07:37:47;;;;;;;1.47;0.90;;;20.50;72.40;;;;;;6099601;23;20597;-77
2022/09/03 07:40:17;;;;;;;1.67;1.30;;;20.50;72.30;;;;;;6126286;23;20898;-78
2022/09/03 07:42:47;;;;;;;1.60;1.20;;;20.60;72.60;;;;;;6128385;23;20803;-78
2022/09/03 07:45:14;;;;;;;1.50;0.90;;;20.80;72.30;;;;;;6125563;23;20925;-78
2022/09/03 07:47:48;;;;;;;1.47;0.90;;;21.00;71.80;;;;;;6118851;23;21001;-75
2022/09/03 07:50:16;;;;;;;1.43;0.90;;;21.20;71.40;;;;;;6128041;23;20425;-75
2022/09/03 07:52:43;;;;;;;1.40;0.90;;;21.50;70.30;;;;;;6123992;23;21038;-76
2022/09/03 07:55:13;;;;;;;1.47;0.90;;;21.60;70.40;;;;;;6120138;23;20434;-76
2022/09/03 07:57:41;;;;;;;1.43;0.83;;;21.70;69.50;;;;;;6126347;23;20462;-77
2022/09/03 08:00:11;;;;;;;1.43;0.90;;;21.70;69.80;;;;;;6123661;23;20976;-78
2022/09/03 08:02:39;;;;;;;1.50;0.90;;;21.60;70.10;;;;;;6126221;23;21001;-78
2022/09/03 08:05:07;;;;;;;1.40;0.90;;;21.60;70.00;;;;;;6131966;23;20422;-78
2022/09/03 08:07:40;;;;;;;1.47;0.90;;;21.40;70.20;;;;;;6120054;23;20464;-77
2022/09/03 08:10:08;;;;;;;1.87;1.77;;;21.30;70.50;;;;;;6121031;23;20524;-76
2022/09/03 08:12:38;;;;;;;1.50;0.87;;;21.20;70.80;;;;;;6131509;23;20460;-79
2022/09/03 08:15:10;;;;;;;1.40;0.90;;;21.20;70.90;;;;;;6121558;23;20436;-78
2022/09/03 08:17:37;;;;;;;1.47;0.97;;;21.30;70.80;;;;;;6125525;23;21262;-78
2022/09/03 08:20:07;;;;;;;1.50;0.90;;;21.30;71.10;;;;;;6124176;23;20480;-81
2022/09/03 08:22:41;;;;;;;1.50;0.90;;;21.30;71.10;;;;;;6129868;23;20429;-78
2022/09/03 08:25:56;;;;;;;1.40;0.90;;;21.30;71.20;;;;;;6127100;23;20421;-77
2022/09/03 08:28:24;;;;;;;1.43;0.90;;;21.40;71.20;;;;;;6107957;23;20729;-78
2022/09/03 08:30:52;;;;;;;1.50;1.00;;;21.40;71.00;;;;;;6107373;23;20422;-76
2022/09/03 08:33:35;;;;;;;1.47;0.93;;;21.50;71.00;;;;;;6136453;23;20825;-75
2022/09/03 08:36:05;;;;;;;1.40;0.90;;;21.50;71.30;;;;;;6120428;23;20441;-78
2022/09/03 08:38:37;;;;;;;1.40;0.90;;;21.60;71.10;;;;;;6120104;23;20462;-77
2022/09/03 08:41:07;;;;;;;1.40;0.90;;;21.80;70.70;;;;;;6109399;23;20968;-77
2022/09/03 08:43:54;;;;;;;1.43;0.90;;;21.90;71.00;;;;;;6151692;23;20446;-76
2022/09/03 08:46:26;;;;;;;1.43;0.90;;;22.20;70.40;;;;;;6131941;23;20488;-78
2022/09/03 08:48:55;;;;;;;1.50;0.90;;;22.70;69.60;;;;;;6127578;23;20513;-77
2022/09/03 08:51:26;;;;;;;1.43;0.90;;;23.20;68.80;;;;;;6115564;23;20448;-76
2022/09/03 08:53:56;;;;;;;1.47;0.87;;;23.60;68.60;;;;;;6146829;23;20430;-77
2022/09/03 08:56:28;;;;;;;1.50;0.90;;;23.90;67.30;;;;;;6118424;23;20453;-80
2022/09/03 08:58:57;;;;;;;1.80;1.47;;;23.90;66.70;;;;;;6135381;23;20445;-77
2022/09/03 09:01:33;;;;;;;1.43;0.90;;;23.70;67.10;;;;;;6120058;23;20448;-77
2022/09/03 09:04:10;;;;;;;1.40;0.90;;;23.50;67.40;;;;;;6134828;23;20430;-79
2022/09/03 09:06:48;;;;;;;1.43;0.90;;;23.30;67.90;;;;;;6123039;23;20705;-77
2022/09/03 09:09:27;;;;;;;1.47;0.90;;;23.30;68.30;;;;;;6129609;23;20632;-76
2022/09/03 09:12:10;;;;;;;1.47;0.90;;;23.10;68.70;;;;;;6116819;23;20409;-77
2022/09/03 09:14:45;;;;;;;1.60;1.30;;;23.00;69.20;;;;;;6115284;23;20922;-78
2022/09/03 09:17:26;;;;;;;1.43;0.90;;;22.80;70.00;;;;;;6117825;23;20515;-76
2022/09/03 09:20:05;;;;;;;1.60;1.10;;;22.80;70.30;;;;;;6122753;23;20873;-77
2022/09/03 09:22:40;;;;;;;1.47;0.90;;;22.70;71.10;;;;;;6126115;23;20452;-78
2022/09/03 09:25:14;;;;;;;1.50;0.90;;;22.70;71.20;;;;;;6118757;23;20480;-74
2022/09/03 09:27:51;;;;;;;1.50;0.90;;;22.80;71.00;;;;;;6126958;23;20463;-79
2022/09/03 09:30:20;;;;;;;1.40;0.90;;;22.70;70.60;;;;;;6121713;23;20438;-77
2022/09/03 09:32:48;;;;;;;1.43;0.90;;;22.70;70.60;;;;;;6128327;23;20521;-77
2022/09/03 09:35:19;;;;;;;1.40;0.90;;;22.70;70.70;;;;;;6129314;23;20464;-79
2022/09/03 09:37:54;;;;;;;1.47;0.90;;;22.80;70.60;;;;;;6129599;23;20466;-77
2022/09/03 09:40:30;;;;;;;1.43;0.87;;;22.70;70.90;;;;;;6129983;23;20452;-78
2022/09/03 09:43:09;;;;;;;1.47;0.90;;;22.70;71.70;;;;;;6129444;23;20971;-79
2022/09/03 09:45:40;;;;;;;1.40;0.87;;;22.80;71.70;;;;;;6117071;23;20505;-76
2022/09/03 09:48:21;;;;;;;1.43;0.90;;;22.70;71.70;;;;;;6123386;23;20446;-77
2022/09/03 09:50:48;;;;;;;1.47;0.80;;;22.80;71.70;;;;;;6114866;23;20488;-77
2022/09/03 09:53:20;;;;;;;1.47;0.90;;;22.60;72.20;;;;;;6114249;23;20457;-77
2022/09/03 09:55:52;;;;;;;1.43;0.90;;;22.50;72.90;;;;;;6117285;23;20885;-77
2022/09/03 09:58:22;;;;;;;1.40;0.90;;;22.40;73.30;;;;;;6119104;23;20932;-78
2022/09/03 10:01:01;;;;;;;1.47;0.90;;;22.20;73.80;;;;;;6102813;23;20465;-77
2022/09/03 10:03:30;;;;;;;1.50;1.00;;;22.10;74.50;;;;;;6137337;23;20417;-79
2022/09/03 10:06:52;;;;;;;1.47;0.90;;;21.90;75.00;;;;;;6105771;23;20438;-79
2022/09/03 10:08:54;;;;;;;1.47;0.90;;;21.90;75.30;;;;;;6133688;23;20500;-76
2022/09/03 10:11:26;;;;;;;1.43;0.87;;;22.00;75.50;;;;;;6115025;23;20452;-76
2022/09/03 10:13:56;;;;;;;1.80;1.03;;;22.00;75.30;;;;;;6141069;23;20458;-76
2022/09/03 10:16:35;;;;;;;1.43;0.90;;;22.00;75.60;;;;;;6129066;23;20500;-78
2022/09/03 10:19:12;;;;;;;1.40;0.90;;;22.10;75.70;;;;;;6132681;23;21167;-77
2022/09/03 10:21:47;;;;;;;1.40;0.90;;;22.30;75.00;;;;;;6134474;23;20449;-78
2022/09/03 10:24:52;;;;;;;1.43;0.90;;;22.40;74.50;;;;;;6134912;23;21124;-78
2022/09/03 10:27:22;;;;;;;1.40;0.90;;;22.50;74.20;;;;;;6004740;23;20456;-79
2022/09/03 10:33:49;;;;;;;1.40;0.83;;;22.50;74.20;;;;;;5835585;23;20441;-76
2022/09/03 10:39:54;;;;;;;1.43;0.90;;;22.50;74.80;;;;;;6102651;23;20492;-78
2022/09/03 10:42:36;;;;;;;1.50;0.90;;;22.60;74.80;;;;;;6132865;23;20463;-78
2022/09/03 10:45:18;;;;;;;1.50;1.00;;;22.90;74.80;;;;;;6133249;23;20442;-77
2022/09/03 10:48:10;;;;;;;1.43;0.87;;;23.10;73.60;;;;;;6140058;23;20958;-79
2022/09/03 10:50:49;;;;;;;1.47;0.90;;;23.40;74.10;;;;;;6130952;23;20422;-79
2022/09/03 10:53:39;;;;;;;1.50;0.90;;;23.90;73.60;;;;;;6141129;23;20423;-79
2022/09/03 10:59:31;;;;;;;1.43;0.87;;;24.50;71.40;;;;;;6158766;23;20472;-80
2022/09/03 11:05:20;;;;;;;1.47;0.87;;;25.20;70.10;;;;;;6129639;23;20498;-78
2022/09/03 11:07:59;;;;;;;1.50;0.90;;;25.00;70.60;;;;;;6141657;23;20444;-77
2022/09/03 11:10:34;;;;;;;1.50;0.90;;;25.20;70.90;;;;;;6131039;23;20418;-78
2022/09/03 11:16:52;;;;;;;1.47;0.90;;;25.40;70.50;;;;;;6110636;23;20475;-78
2022/09/03 11:29:52;;;;;;;1.43;0.80;;;25.50;71.70;;;;;;6133868;23;20484;-77
2022/09/03 11:33:08;;;;;;;1.40;0.80;;;25.80;71.60;;;;;;6120005;23;20444;-79
2022/09/03 11:35:42;;;;;;;1.43;0.80;;;25.90;71.20;;;;;;6143546;23;20422;-78
2022/09/03 11:38:46;;;;;;;1.50;0.90;;;26.30;70.40;;;;;;6117245;23;20513;-78
2022/09/03 11:41:28;;;;;;;1.43;0.80;;;26.50;70.10;;;;;;6142046;23;20452;-77
2022/09/03 11:43:58;;;;;;;1.43;0.80;;;26.40;69.90;;;;;;6132032;23;20592;-79
2022/09/03 11:46:39;;;;;;;1.50;1.10;;;26.40;70.60;;;;;;6132305;23;20511;-78
2022/09/03 11:49:27;;;;;;;1.47;0.80;;;26.40;70.50;;;;;;6144470;23;20437;-78
2022/09/03 11:52:02;;;;;;;1.73;1.60;;;26.60;69.80;;;;;;6126693;23;20454;-79
2022/09/03 11:54:47;;;;;;;1.50;0.80;;;26.70;69.80;;;;;;6151569;23;20451;-78
2022/09/03 11:57:23;;;;;;;1.40;0.80;;;26.70;69.80;;;;;;6139032;23;20471;-78
2022/09/03 11:59:54;;;;;;;1.53;1.00;;;26.50;70.00;;;;;;6148154;23;20827;-77
2022/09/03 12:02:32;;;;;;;1.50;0.90;;;26.50;70.40;;;;;;6138798;23;21103;-77
2022/09/03 12:05:29;;;;;;;1.43;0.80;;;26.40;71.00;;;;;;6172324;23;20424;-78
2022/09/03 12:08:44;;;;;;;1.50;1.00;;;26.60;71.40;;;;;;6169971;23;20494;-76
2022/09/03 12:11:33;;;;;;;1.43;0.87;;;27.00;70.10;;;;;;6152898;23;20437;-77
2022/09/03 12:14:08;;;;;;;1.47;0.80;;;27.10;69.50;;;;;;6156328;23;20441;-76
2022/09/03 12:17:06;;;;;;;1.47;0.80;;;27.50;69.50;;;;;;6169901;23;20426;-78
2022/09/03 12:19:43;;;;;;;1.47;0.90;;;27.80;68.80;;;;;;6169656;23;20434;-78
2022/09/03 12:22:38;;;;;;;1.40;0.80;;;27.70;69.10;;;;;;6169229;23;20805;-79
2022/09/03 12:25:13;;;;;;;1.40;0.90;;;27.60;69.00;;;;;;6168545;23;20512;-79
2022/09/03 12:27:48;;;;;;;1.40;0.80;;;27.80;68.50;;;;;;6167675;23;20523;-76
2022/09/03 12:30:24;;;;;;;1.57;1.17;;;27.70;68.40;;;;;;6169375;23;20428;-76
2022/09/03 12:33:05;;;;;;;1.60;1.30;;;27.80;68.10;;;;;;6168437;23;20977;-78
2022/09/03 12:35:44;;;;;;;1.40;0.80;;;28.00;68.40;;;;;;6168331;23;20432;-78
2022/09/03 12:38:33;;;;;;;;;;;;;;;;;;;;;
2022/09/03 12:41:03;;;;;;;1.40;0.80;;;27.90;69.00;;;;;;6152076;23;20436;-77
2022/09/03 12:43:56;;;;;;;1.40;0.80;;;27.80;69.10;;;;;;6168887;23;20615;-77
2022/09/03 12:46:34;;;;;;;1.47;0.90;;;27.70;69.40;;;;;;6157168;23;20731;-76
2022/09/03 12:49:42;;;;;;;1.43;0.90;;;27.70;69.80;;;;;;6182985;23;20447;-76
2022/09/03 12:52:34;;;;;;;;;;;;;;;;;;;;;
2022/09/03 12:55:44;;;;;;;;;;;;;;;;;;;;;
2022/09/03 12:58:24;;;;;;;1.40;0.80;;;27.70;69.40;;;;;;6141437;23;20782;-78
2022/09/03 13:01:00;;;;;;;1.50;1.00;;;27.70;69.90;;;;;;6150433;23;20451;-76
2022/09/03 13:03:33;;;;;;;1.40;0.80;;;28.00;69.40;;;;;;6164989;23;20498;-77
2022/09/03 13:06:06;;;;;;;1.43;0.80;;;28.10;68.10;;;;;;6148832;23;20487;-78
2022/09/03 13:08:45;;;;;;;1.40;0.80;;;28.00;68.20;;;;;;6165227;23;20487;-77
2022/09/03 13:11:18;;;;;;;1.50;1.00;;;27.90;68.00;;;;;;6146489;23;20532;-77
2022/09/03 13:13:55;;;;;;;1.40;0.80;;;27.90;68.50;;;;;;6162699;23;20455;-77
2022/09/03 13:16:55;;;;;;;1.40;0.80;;;28.10;68.70;;;;;;6165408;23;20436;-78
2022/09/03 13:19:36;;;;;;;1.40;0.80;;;28.50;67.40;;;;;;6163346;23;20939;-77
2022/09/03 13:22:22;;;;;;;1.40;0.80;;;28.70;66.50;;;;;;6162834;23;20666;-77
2022/09/03 13:25:10;;;;;;;1.47;0.80;;;28.60;66.20;;;;;;6165437;23;20420;-76
2022/09/03 13:27:47;;;;;;;1.47;0.80;;;28.70;65.90;;;;;;6164117;23;20447;-75
2022/09/03 13:30:21;;;;;;;1.43;0.80;;;28.80;65.60;;;;;;6155626;23;20431;-77
2022/09/03 14:05:24;;;;;;;1.40;0.80;;;28.50;65.90;;;;;;6116762;23;20428;-77
2022/09/03 14:08:07;;;;;;;1.40;0.80;;;28.50;65.70;;;;;;6121909;23;20451;-78
2022/09/03 14:10:52;;;;;;;1.40;0.80;;;28.70;65.60;;;;;;6114987;23;20473;-78
2022/09/03 14:13:28;;;;;;;1.40;0.80;;;29.00;64.30;;;;;;6100151;23;20432;-76
2022/09/03 14:16:04;;;;;;;1.40;0.80;;;28.80;64.60;;;;;;6097592;23;20464;-78
2022/09/03 14:18:46;;;;;;;1.63;1.03;;;29.00;64.50;;;;;;6120923;23;20435;-78
2022/09/03 14:21:20;;;;;;;1.40;0.80;;;29.00;64.30;;;;;;6120373;23;20451;-79
2022/09/03 14:23:55;;;;;;;1.40;0.80;;;28.80;64.80;;;;;;6123859;23;20433;-79
2022/09/03 14:26:27;;;;;;;1.40;0.80;;;28.80;65.00;;;;;;6100748;23;20799;-78
2022/09/03 14:29:00;;;;;;;1.40;0.80;;;28.90;65.70;;;;;;6124084;23;20428;-78
2022/09/03 14:31:41;;;;;;;1.50;1.10;;;29.20;65.20;;;;;;6100998;23;20878;-77
2022/09/03 14:34:14;;;;;;;1.40;0.80;;;29.50;63.90;;;;;;6117379;23;20923;-79
2022/09/03 14:36:54;;;;;;;1.43;0.80;;;29.70;63.80;;;;;;6100994;23;20472;-78
2022/09/03 14:39:32;;;;;;;1.43;0.80;;;29.50;63.50;;;;;;6115823;23;20413;-78
2022/09/03 14:42:23;;;;;;;1.47;0.80;;;29.40;64.30;;;;;;6117063;23;20827;-78
2022/09/03 14:45:18;;;;;;;1.43;0.80;;;29.50;64.00;;;;;;6117066;23;20421;-80
2022/09/03 14:48:13;;;;;;;1.40;0.80;;;29.30;64.50;;;;;;6091494;23;20970;-77
2022/09/03 14:50:53;;;;;;;1.50;1.20;;;29.10;64.60;;;;;;6117061;23;20531;-78
2022/09/03 14:53:37;;;;;;;1.50;0.90;;;29.10;65.00;;;;;;6101001;23;20947;-77
2022/09/03 14:56:20;;;;;;;1.47;0.80;;;29.30;64.80;;;;;;6126088;23;20432;-80
2022/09/03 14:59:21;;;;;;;1.40;0.80;;;29.20;64.60;;;;;;6119429;23;20424;-79
2022/09/03 15:02:05;;;;;;;1.40;0.80;;;28.90;65.30;;;;;;6106469;23;20448;-79